Time;durP1;ratioP1;P1;durP2;ratioP2;P2;SDS_P1;SDS_P2;PMS_P1;PMS_P2;Temp;Humidity;BMP_temperature;BMP_pressure;BME280_temperature;BME280_humidity;BME280_pressure;Samples;Min_cycle;Max_cycle;Signal;HPM_P1;HPM_P2
2022/04/25 00:01:15;;;;;;;11.73;4.32;;;7.00;99.90;;;;;;5098468;28;20034;-83
2022/04/25 00:03:41;;;;;;;9.18;4.18;;;7.00;99.90;;;;;;5098810;28;20039;-82
2022/04/25 00:06:07;;;;;;;10.98;4.50;;;7.00;99.90;;;;;;5099241;28;20055;-82
2022/04/25 00:08:33;;;;;;;6.22;4.15;;;6.90;99.90;;;;;;5110182;28;20096;-82
2022/04/25 00:10:58;;;;;;;15.23;5.28;;;6.90;99.90;;;;;;5097384;28;20055;-82
2022/04/25 00:13:24;;;;;;;10.95;4.40;;;6.80;99.90;;;;;;5097096;28;20110;-82
2022/04/25 00:15:52;;;;;;;8.30;4.00;;;6.80;99.90;;;;;;5117394;22;20112;-77
2022/04/25 00:18:18;;;;;;;7.20;4.30;;;6.80;99.90;;;;;;5100147;28;20046;-77
2022/04/25 00:20:44;;;;;;;9.13;4.87;;;6.80;99.90;;;;;;5100854;28;20051;-77
2022/04/25 00:23:10;;;;;;;10.40;4.60;;;6.70;99.90;;;;;;5098713;28;20031;-77
2022/04/25 00:25:36;;;;;;;11.95;4.88;;;6.70;99.90;;;;;;5098375;28;20088;-77
2022/04/25 00:28:03;;;;;;;9.07;4.75;;;6.70;99.90;;;;;;5098272;28;20032;-77
2022/04/25 00:30:29;;;;;;;13.13;5.17;;;6.70;99.90;;;;;;5099978;28;20133;-77
2022/04/25 00:32:56;;;;;;;11.93;5.30;;;6.70;99.90;;;;;;5101092;28;20648;-77
2022/04/25 00:35:22;;;;;;;12.55;5.50;;;6.70;99.90;;;;;;5099132;28;20590;-77
2022/04/25 00:37:49;;;;;;;12.80;6.18;;;6.70;99.90;;;;;;5100860;28;20119;-77
2022/04/25 00:40:15;;;;;;;9.50;4.87;;;6.70;99.90;;;;;;5101634;28;20069;-77
2022/04/25 00:42:42;;;;;;;13.07;5.33;;;6.70;99.90;;;;;;5098625;28;20032;-77
2022/04/25 00:45:11;;;;;;;10.00;4.70;;;6.70;99.90;;;;;;5099113;28;20044;-77
2022/04/25 00:47:38;;;;;;;12.10;5.60;;;6.70;99.90;;;;;;5097953;28;20480;-77
2022/04/25 00:50:05;;;;;;;12.18;5.63;;;6.70;99.90;;;;;;5096538;28;20111;-77
2022/04/25 00:52:31;;;;;;;10.75;5.82;;;6.70;99.90;;;;;;5103697;28;20103;-77
2022/04/25 00:54:58;;;;;;;13.05;5.53;;;6.80;99.90;;;;;;5098174;28;20103;-77
2022/04/25 00:57:25;;;;;;;8.90;5.10;;;6.70;99.90;;;;;;5097740;28;20107;-77
2022/04/25 00:59:52;;;;;;;10.82;5.38;;;6.70;99.90;;;;;;5097225;28;20426;-77
2022/04/25 01:02:18;;;;;;;11.95;5.43;;;6.70;99.90;;;;;;5099098;28;20020;-77
2022/04/25 01:04:43;;;;;;;12.10;6.72;;;6.60;99.90;;;;;;5099811;28;20019;-77
2022/04/25 01:07:10;;;;;;;12.23;6.20;;;6.60;99.90;;;;;;5099080;28;20032;-77
2022/04/25 01:09:35;;;;;;;14.43;6.63;;;6.50;99.90;;;;;;5100397;28;20035;-77
2022/04/25 01:12:02;;;;;;;12.27;6.73;;;6.60;99.90;;;;;;5100015;28;20023;-77
2022/04/25 01:14:28;;;;;;;18.77;6.80;;;6.60;99.90;;;;;;5118243;22;20121;-82
2022/04/25 01:16:54;;;;;;;16.98;6.75;;;6.50;99.90;;;;;;5099774;28;20048;-82
2022/04/25 01:19:20;;;;;;;11.10;7.10;;;6.50;99.90;;;;;;5099518;28;20028;-82
2022/04/25 01:22:14;;;;;;;13.90;6.63;;;6.50;99.90;;;;;;5093111;28;20024;-82
2022/04/25 01:27:24;;;;;;;15.02;6.75;;;6.40;99.90;;;;;;5099421;28;20019;-81
2022/04/25 01:29:52;;;;;;;14.27;7.63;;;6.40;99.90;;;;;;5099472;28;20024;-82
2022/04/25 01:32:19;;;;;;;12.90;6.77;;;6.40;99.90;;;;;;5099811;28;20020;-82
2022/04/25 01:34:45;;;;;;;12.15;6.55;;;6.40;99.90;;;;;;5099503;28;20456;-82
2022/04/25 01:37:16;;;;;;;16.35;7.78;;;6.40;99.90;;;;;;5098228;28;20032;-82
2022/04/25 01:39:43;;;;;;;17.77;7.50;;;6.30;99.90;;;;;;5099556;28;20020;-82
2022/04/25 01:42:09;;;;;;;13.80;7.83;;;6.40;99.90;;;;;;5097334;28;20046;-81
2022/04/25 01:44:36;;;;;;;18.13;7.82;;;6.30;99.90;;;;;;5096450;28;20673;-82
2022/04/25 01:47:03;;;;;;;18.02;7.75;;;6.30;99.90;;;;;;5096875;28;20024;-81
2022/04/25 01:49:29;;;;;;;16.83;7.67;;;6.30;99.90;;;;;;5098817;28;20032;-81
2022/04/25 01:51:55;;;;;;;15.60;7.83;;;6.30;99.90;;;;;;5104785;28;20012;-81
2022/04/25 01:54:26;;;;;;;16.55;8.05;;;6.20;99.90;;;;;;5099411;28;20102;-81
2022/04/25 01:56:56;;;;;;;15.67;7.60;;;6.20;99.90;;;;;;5099522;28;20032;-82
2022/04/25 01:59:23;;;;;;;16.65;7.88;;;6.30;99.90;;;;;;5096542;28;20263;-81
2022/04/25 02:01:50;;;;;;;15.05;7.72;;;6.20;99.90;;;;;;5096719;28;20019;-81
2022/04/25 02:04:16;;;;;;;19.92;7.47;;;6.20;99.90;;;;;;5096626;28;20020;-82
2022/04/25 02:06:41;;;;;;;14.93;8.23;;;6.20;99.90;;;;;;5098956;28;20023;-81
2022/04/25 02:09:08;;;;;;;14.23;7.88;;;6.20;99.90;;;;;;5098885;28;20043;-81
2022/04/25 02:11:34;;;;;;;15.45;7.65;;;6.10;99.90;;;;;;5099086;28;20020;-81
2022/04/25 02:16:32;;;;;;;16.07;8.07;;;6.30;99.90;;;;;;5109649;28;20043;-77
2022/04/25 02:18:59;;;;;;;14.68;7.10;;;6.20;99.90;;;;;;5110131;28;20034;-77
2022/04/25 02:21:25;;;;;;;16.10;7.57;;;6.10;99.90;;;;;;5105242;28;20042;-77
2022/04/25 02:23:51;;;;;;;16.13;7.63;;;6.10;99.90;;;;;;5110296;28;20392;-77
2022/04/25 02:26:17;;;;;;;15.60;7.53;;;6.10;99.90;;;;;;5101682;28;20020;-77
2022/04/25 02:28:43;;;;;;;14.43;7.53;;;6.10;99.90;;;;;;5098471;28;20020;-77
2022/04/25 02:31:09;;;;;;;15.83;7.97;;;6.10;99.90;;;;;;5102220;28;20098;-77
2022/04/25 02:33:35;;;;;;;20.73;8.07;;;6.10;99.90;;;;;;5101297;28;20156;-77
2022/04/25 02:36:04;;;;;;;11.90;7.13;;;6.00;99.90;;;;;;5098078;28;20028;-77
2022/04/25 02:38:33;;;;;;;14.70;7.90;;;6.00;99.90;;;;;;5098203;28;20031;-77
2022/04/25 02:41:05;;;;;;;18.95;6.97;;;5.90;99.90;;;;;;5098979;28;20016;-77
2022/04/25 02:43:39;;;;;;;10.65;7.35;;;5.90;99.90;;;;;;5101659;28;20023;-77
2022/04/25 02:46:10;;;;;;;12.85;7.03;;;5.80;99.90;;;;;;5098186;28;20120;-77
2022/04/25 02:48:37;;;;;;;15.10;7.70;;;5.80;99.90;;;;;;5103789;28;20023;-77
2022/04/25 02:51:04;;;;;;;17.95;7.88;;;5.90;99.90;;;;;;5099328;28;20027;-77
2022/04/25 02:53:30;;;;;;;16.00;8.10;;;5.90;99.90;;;;;;5098918;28;20038;-77
2022/04/25 02:55:57;;;;;;;16.40;8.00;;;5.90;99.90;;;;;;5103267;28;20020;-77
2022/04/25 02:58:24;;;;;;;17.93;8.77;;;5.90;99.90;;;;;;5098993;28;20031;-77
2022/04/25 03:00:51;;;;;;;13.60;8.33;;;5.90;99.90;;;;;;5099504;28;20484;-77
2022/04/25 03:03:19;;;;;;;16.50;7.88;;;5.90;99.90;;;;;;5103167;28;20026;-77
2022/04/25 03:05:47;;;;;;;14.33;8.00;;;6.00;99.90;;;;;;5102842;28;20019;-77
2022/04/25 03:08:16;;;;;;;22.47;8.57;;;6.10;99.90;;;;;;5099890;28;20019;-77
2022/04/25 03:10:43;;;;;;;12.30;8.57;;;6.20;99.90;;;;;;5098274;28;20089;-77
2022/04/25 03:13:10;;;;;;;11.05;7.15;;;6.30;99.90;;;;;;5103159;28;20480;-77
2022/04/25 03:15:39;;;;;;;18.85;7.57;;;6.40;99.90;;;;;;5123594;22;20388;-80
2022/04/25 03:18:07;;;;;;;20.58;8.07;;;6.60;99.90;;;;;;5090849;28;20072;-80
2022/04/25 03:20:33;;;;;;;19.88;8.05;;;6.70;99.90;;;;;;5091126;28;20020;-80
2022/04/25 03:22:59;;;;;;;14.32;7.28;;;6.80;99.90;;;;;;5091023;28;20039;-81
2022/04/25 03:25:25;;;;;;;17.05;8.13;;;6.90;99.90;;;;;;5077991;28;20033;-81
2022/04/25 03:27:51;;;;;;;13.82;7.30;;;6.90;99.90;;;;;;5071188;28;20061;-81
2022/04/25 03:30:17;;;;;;;10.48;6.80;;;7.00;99.90;;;;;;5070845;28;20078;-80
2022/04/25 03:32:46;;;;;;;11.57;6.85;;;7.00;99.90;;;;;;5070856;28;20530;-81
2022/04/25 03:35:17;;;;;;;15.27;7.28;;;7.00;99.90;;;;;;5070654;28;20040;-80
2022/04/25 03:37:47;;;;;;;14.00;7.22;;;7.00;99.90;;;;;;5069107;28;20029;-81
2022/04/25 03:40:13;;;;;;;10.68;6.75;;;7.00;99.90;;;;;;5070932;28;20020;-80
2022/04/25 03:42:41;;;;;;;20.23;7.60;;;7.10;99.90;;;;;;5071177;28;20020;-80
2022/04/25 03:45:09;;;;;;;18.52;8.88;;;7.00;99.90;;;;;;5077596;28;20013;-80
2022/04/25 03:47:39;;;;;;;12.25;7.40;;;7.00;99.90;;;;;;5077992;28;20031;-80
2022/04/25 03:50:07;;;;;;;13.07;7.15;;;7.00;99.90;;;;;;5069620;28;20062;-80
2022/04/25 03:52:37;;;;;;;18.90;7.50;;;7.00;99.90;;;;;;5074436;28;20062;-80
2022/04/25 03:57:52;;;;;;;13.55;7.53;;;7.00;99.90;;;;;;5069350;28;20055;-81
2022/04/25 04:00:18;;;;;;;14.43;7.68;;;6.90;99.90;;;;;;5080886;28;20012;-81
2022/04/25 04:02:44;;;;;;;14.27;6.97;;;6.80;99.90;;;;;;5074155;28;20035;-81
2022/04/25 04:05:10;;;;;;;15.35;7.45;;;6.80;99.90;;;;;;5074129;28;20029;-81
2022/04/25 04:07:36;;;;;;;13.05;7.32;;;6.80;99.90;;;;;;5067325;28;20473;-81
2022/04/25 04:10:03;;;;;;;19.60;7.88;;;6.80;99.90;;;;;;5074244;28;20020;-81
2022/04/25 04:12:34;;;;;;;13.18;6.95;;;6.80;99.90;;;;;;5073962;28;20025;-81
2022/04/25 04:15:07;;;;;;;16.98;7.40;;;6.80;99.90;;;;;;5097447;22;20388;-77
2022/04/25 04:17:34;;;;;;;12.35;8.05;;;6.80;99.90;;;;;;5100809;28;20039;-77
2022/04/25 04:20:02;;;;;;;14.48;8.32;;;6.80;99.90;;;;;;5100973;28;20028;-77
2022/04/25 04:22:30;;;;;;;15.23;7.32;;;6.80;99.90;;;;;;5095094;28;20473;-77
2022/04/25 04:25:01;;;;;;;16.85;8.77;;;6.80;99.90;;;;;;5100296;28;20453;-77
2022/04/25 04:27:29;;;;;;;18.88;8.80;;;6.70;99.90;;;;;;5100765;28;20103;-77
2022/04/25 04:29:55;;;;;;;17.65;8.10;;;6.70;99.90;;;;;;5100889;28;20024;-77
2022/04/25 04:32:21;;;;;;;13.63;8.70;;;6.70;99.90;;;;;;5101271;28;20020;-77
2022/04/25 04:34:46;;;;;;;17.75;9.70;;;6.70;99.90;;;;;;5100702;28;20098;-77
2022/04/25 04:37:13;;;;;;;16.83;9.75;;;6.60;99.90;;;;;;5100606;28;20039;-77
2022/04/25 04:39:39;;;;;;;16.45;8.50;;;6.60;99.90;;;;;;5100363;28;20116;-77
2022/04/25 04:42:05;;;;;;;16.80;9.23;;;6.60;99.90;;;;;;5098136;28;20108;-77
2022/04/25 04:44:30;;;;;;;20.07;9.50;;;6.60;99.90;;;;;;5097508;28;20015;-77
2022/04/25 04:46:56;;;;;;;17.42;9.18;;;6.60;99.90;;;;;;5098426;28;20020;-77
2022/04/25 04:49:22;;;;;;;15.47;8.60;;;6.60;99.90;;;;;;5100355;28;20084;-77
2022/04/25 04:51:47;;;;;;;16.73;8.77;;;6.60;99.90;;;;;;5105463;28;20068;-77
2022/04/25 04:54:13;;;;;;;23.43;9.70;;;6.60;99.90;;;;;;5100592;28;20024;-77
2022/04/25 04:56:39;;;;;;;19.00;9.10;;;6.50;99.90;;;;;;5100615;28;20016;-77
2022/04/25 04:59:05;;;;;;;16.07;9.30;;;6.40;99.90;;;;;;5099004;28;20035;-77
2022/04/25 05:01:32;;;;;;;17.75;9.63;;;6.40;99.90;;;;;;5100013;28;20016;-77
2022/04/25 05:03:58;;;;;;;12.63;9.05;;;6.40;99.90;;;;;;5097917;28;20023;-77
2022/04/25 05:06:26;;;;;;;21.63;9.23;;;6.40;99.90;;;;;;5097470;28;20136;-77
2022/04/25 05:08:51;;;;;;;15.53;9.07;;;6.40;99.90;;;;;;5097394;28;20381;-78
2022/04/25 05:11:17;;;;;;;17.53;9.00;;;6.50;99.90;;;;;;5098965;28;20100;-77
2022/04/25 05:13:43;;;;;;;16.67;9.40;;;6.50;99.90;;;;;;5099900;28;20111;-77
2022/04/25 05:16:09;;;;;;;15.23;9.50;;;6.60;99.90;;;;;;5134267;22;20043;-80
2022/04/25 05:18:35;;;;;;;13.10;8.93;;;6.60;99.90;;;;;;5099890;28;20468;-80
2022/04/25 05:21:02;;;;;;;18.10;8.52;;;6.70;99.90;;;;;;5098731;28;20030;-80
2022/04/25 05:23:28;;;;;;;15.87;8.73;;;6.80;99.90;;;;;;5098687;28;20027;-81
2022/04/25 05:25:55;;;;;;;17.10;8.20;;;6.80;99.90;;;;;;5099195;28;20024;-81
2022/04/25 05:28:29;;;;;;;14.90;7.90;;;6.80;99.90;;;;;;5097324;28;20034;-81
2022/04/25 05:30:55;;;;;;;16.70;8.70;;;6.80;99.90;;;;;;5097224;28;20544;-81
2022/04/25 05:33:20;;;;;;;16.48;7.97;;;6.90;99.90;;;;;;5102863;28;20377;-80
2022/04/25 05:35:46;;;;;;;14.80;7.70;;;6.80;99.90;;;;;;5099060;28;20031;-80
2022/04/25 05:38:12;;;;;;;14.70;8.00;;;6.90;99.90;;;;;;5098106;28;20396;-81
2022/04/25 05:40:42;;;;;;;14.85;7.70;;;7.00;99.90;;;;;;5098459;28;20369;-81
2022/04/25 05:43:08;;;;;;;15.07;7.78;;;7.00;99.90;;;;;;5098490;28;20023;-81
2022/04/25 05:45:34;;;;;;;12.30;7.35;;;7.10;99.90;;;;;;5101541;28;20034;-81
2022/04/25 05:48:01;;;;;;;14.90;6.95;;;7.20;99.90;;;;;;5108206;28;20209;-80
2022/04/25 05:53:13;;;;;;;10.80;6.95;;;7.40;99.90;;;;;;5099256;28;20380;-80
2022/04/25 05:55:41;;;;;;;12.93;7.45;;;7.50;99.90;;;;;;5109423;28;20035;-81
2022/04/25 05:58:07;;;;;;;17.08;7.50;;;7.50;99.90;;;;;;5101138;28;20047;-81
2022/04/25 06:00:34;;;;;;;14.70;7.32;;;7.60;99.90;;;;;;5099380;28;20019;-80
2022/04/25 06:03:01;;;;;;;15.40;7.63;;;7.70;99.90;;;;;;5095981;28;20015;-81
2022/04/25 06:05:27;;;;;;;14.80;6.97;;;7.70;99.90;;;;;;5096180;28;20376;-80
2022/04/25 06:07:54;;;;;;;14.85;7.88;;;7.80;99.90;;;;;;5096165;28;20024;-81
2022/04/25 06:10:25;;;;;;;11.50;6.78;;;7.80;99.90;;;;;;5097894;28;20016;-81
2022/04/25 06:12:52;;;;;;;14.63;6.65;;;7.80;99.90;;;;;;5099067;28;20052;-81
2022/04/25 06:15:21;;;;;;;12.68;6.68;;;7.80;99.90;;;;;;5131421;22;20046;-79
2022/04/25 06:17:47;;;;;;;12.80;6.13;;;7.90;99.90;;;;;;5104010;28;20036;-79
2022/04/25 06:20:13;;;;;;;13.10;6.90;;;8.00;99.90;;;;;;5108426;28;20027;-78
2022/04/25 06:22:51;;;;;;;10.68;6.68;;;8.00;99.90;;;;;;5110058;28;20038;-79
2022/04/25 06:25:16;;;;;;;9.20;6.90;;;8.10;99.90;;;;;;5102222;28;20426;-78
2022/04/25 06:27:42;;;;;;;13.48;6.70;;;8.20;99.90;;;;;;5091295;28;20077;-79
2022/04/25 06:30:08;;;;;;;13.38;7.28;;;8.20;99.90;;;;;;5086598;28;20108;-79
2022/04/25 06:32:35;;;;;;;16.25;7.68;;;8.20;99.90;;;;;;5090765;28;20028;-79
2022/04/25 06:35:01;;;;;;;12.13;8.40;;;8.20;99.90;;;;;;5077801;28;20090;-78
2022/04/25 06:37:27;;;;;;;12.57;6.70;;;8.30;99.90;;;;;;5084435;28;20451;-79
2022/04/25 06:39:52;;;;;;;12.48;7.53;;;8.40;99.90;;;;;;5084972;28;20465;-79
2022/04/25 06:42:18;;;;;;;15.60;7.30;;;8.40;99.90;;;;;;5090841;28;20020;-79
2022/04/25 06:44:44;;;;;;;12.43;6.63;;;8.50;99.90;;;;;;5079095;28;20032;-79
2022/04/25 06:47:09;;;;;;;14.05;7.60;;;8.70;99.90;;;;;;5089429;28;20036;-79
2022/04/25 06:49:35;;;;;;;14.65;7.05;;;9.00;99.90;;;;;;5090842;28;20027;-79
2022/04/25 06:52:01;;;;;;;17.35;6.95;;;9.20;99.90;;;;;;5085841;28;20036;-79
2022/04/25 06:54:28;;;;;;;12.32;6.03;;;9.30;99.90;;;;;;5088989;28;20012;-79
2022/04/25 06:56:55;;;;;;;10.43;6.70;;;9.20;99.90;;;;;;5088109;28;20030;-79
2022/04/25 06:59:22;;;;;;;17.10;6.88;;;9.10;99.90;;;;;;5083640;28;20028;-79
2022/04/25 07:01:49;;;;;;;16.38;7.43;;;9.00;99.90;;;;;;5089948;28;20020;-79
2022/04/25 07:04:16;;;;;;;12.80;7.13;;;9.00;99.90;;;;;;5087647;28;20115;-79
2022/04/25 07:06:43;;;;;;;11.15;7.13;;;8.90;99.90;;;;;;5092855;28;20024;-79
2022/04/25 07:09:12;;;;;;;9.85;6.40;;;9.00;99.90;;;;;;5089312;28;20024;-79
2022/04/25 07:11:47;;;;;;;12.65;6.43;;;8.90;99.90;;;;;;5090221;28;20016;-79
2022/04/25 07:16:52;;;;;;;10.77;5.50;;;9.10;99.90;;;;;;5107784;28;20039;-79
2022/04/25 07:19:21;;;;;;;10.05;6.20;;;9.30;99.90;;;;;;5109636;28;20028;-80
2022/04/25 07:30:01;;;;;;;9.73;5.90;;;9.90;99.90;;;;;;5106312;28;20495;-81
2022/04/25 07:32:27;;;;;;;11.63;6.03;;;10.20;99.90;;;;;;5094668;28;20020;-80
2022/04/25 07:34:52;;;;;;;16.35;5.35;;;10.50;99.90;;;;;;5113619;28;20498;-82
2022/04/25 07:37:22;;;;;;;10.38;5.18;;;10.70;99.90;;;;;;5113213;28;20146;-80
2022/04/25 07:39:48;;;;;;;10.98;4.97;;;10.80;99.90;;;;;;5113038;28;20012;-80
2022/04/25 07:42:24;;;;;;;9.95;5.10;;;10.90;99.90;;;;;;5112562;28;20034;-80
2022/04/25 07:44:49;;;;;;;10.43;4.47;;;10.50;98.90;;;;;;5108906;28;20555;-80
2022/04/25 07:47:15;;;;;;;7.68;4.20;;;10.80;99.90;;;;;;5111851;28;20103;-80
2022/04/25 07:49:42;;;;;;;10.10;4.43;;;10.80;99.00;;;;;;5112967;28;20063;-80
2022/04/25 07:52:09;;;;;;;11.13;5.15;;;11.10;99.50;;;;;;5113228;28;20026;-80
2022/04/25 07:54:34;;;;;;;10.23;4.40;;;11.50;99.00;;;;;;5102083;28;20051;-80
2022/04/25 07:57:03;;;;;;;6.85;4.28;;;11.60;97.40;;;;;;5094366;28;20384;-81
2022/04/25 07:59:29;;;;;;;8.02;5.10;;;11.50;96.90;;;;;;5113277;28;20031;-81
2022/04/25 08:01:55;;;;;;;13.23;4.28;;;11.40;96.90;;;;;;5101720;28;20099;-81
2022/04/25 08:04:20;;;;;;;9.35;4.45;;;11.30;96.50;;;;;;5092928;27;20099;-81
2022/04/25 08:06:46;;;;;;;6.35;3.97;;;11.30;96.20;;;;;;5106979;28;20076;-81
2022/04/25 08:09:12;;;;;;;11.95;4.68;;;11.10;97.20;;;;;;5103743;27;20023;-81
2022/04/25 08:11:38;;;;;;;13.13;4.95;;;11.10;98.20;;;;;;5106221;28;20160;-80
2022/04/25 08:19:32;;;;;;;5.68;3.92;;;11.00;97.30;;;;;;5099334;28;20038;-79
2022/04/25 08:21:58;;;;;;;11.15;4.25;;;11.00;97.80;;;;;;5097666;28;20020;-79
2022/04/25 08:24:24;;;;;;;9.13;4.53;;;11.10;98.50;;;;;;5096816;28;20032;-79
2022/04/25 08:26:50;;;;;;;9.07;3.90;;;11.20;97.20;;;;;;5092401;28;20093;-79
2022/04/25 08:29:15;;;;;;;7.53;3.72;;;11.50;97.90;;;;;;5091538;28;20032;-79
2022/04/25 08:31:41;;;;;;;12.05;4.10;;;12.00;98.60;;;;;;5091024;28;20031;-79
2022/04/25 08:34:09;;;;;;;8.68;3.67;;;12.60;94.40;;;;;;5092407;28;20024;-79
2022/04/25 08:36:35;;;;;;;8.52;3.53;;;13.10;94.50;;;;;;5091849;28;20070;-78
2022/04/25 08:39:03;;;;;;;7.30;3.42;;;13.50;91.90;;;;;;5090488;28;20040;-82
2022/04/25 08:41:51;;;;;;;7.40;3.33;;;14.00;91.10;;;;;;5092252;28;20023;-78
2022/04/25 08:44:18;;;;;;;8.77;4.25;;;14.60;88.70;;;;;;5087156;28;20130;-79
2022/04/25 08:46:48;;;;;;;9.40;3.08;;;14.50;85.80;;;;;;5091940;28;20016;-77
2022/04/25 08:49:16;;;;;;;8.30;3.83;;;14.20;81.80;;;;;;5091537;28;20024;-78
2022/04/25 08:51:42;;;;;;;9.00;4.00;;;14.20;85.10;;;;;;5091646;28;20024;-80
2022/04/25 08:54:08;;;;;;;6.25;3.60;;;14.20;85.90;;;;;;5091999;28;20024;-78
2022/04/25 08:56:39;;;;;;;7.50;4.03;;;14.10;85.80;;;;;;5091462;28;20024;-77
2022/04/25 08:59:08;;;;;;;7.53;3.25;;;13.80;86.30;;;;;;5090957;28;20040;-78
2022/04/25 09:01:35;;;;;;;8.00;3.65;;;13.90;86.40;;;;;;5078788;28;20025;-78
2022/04/25 09:04:02;;;;;;;4.80;3.35;;;14.00;86.30;;;;;;5091638;28;20052;-77
2022/04/25 09:06:28;;;;;;;10.18;4.03;;;13.70;84.40;;;;;;5091256;28;20099;-78
2022/04/25 09:08:54;;;;;;;10.00;3.58;;;13.60;86.70;;;;;;5091575;28;20095;-78
2022/04/25 09:14:05;;;;;;;11.57;3.75;;;14.00;83.40;;;;;;5085662;28;20117;-77
2022/04/25 09:16:31;;;;;;;7.22;3.05;;;14.50;83.80;;;;;;5091005;28;20427;-78
2022/04/25 09:18:57;;;;;;;9.68;3.13;;;14.70;79.80;;;;;;5091530;28;20089;-78
2022/04/25 09:21:24;;;;;;;6.47;3.40;;;14.90;78.80;;;;;;5088893;28;20038;-78
2022/04/25 09:23:53;;;;;;;6.82;3.13;;;15.40;79.40;;;;;;5089406;28;20089;-78
2022/04/25 09:26:27;;;;;;;6.18;3.00;;;16.10;77.00;;;;;;5083017;28;20012;-78
2022/04/25 09:28:55;;;;;;;6.53;3.17;;;17.00;69.60;;;;;;5089926;28;20103;-79
2022/04/25 09:31:24;;;;;;;6.97;3.05;;;17.00;66.20;;;;;;5090773;28;20099;-79
2022/04/25 09:33:50;;;;;;;7.07;3.10;;;17.70;67.10;;;;;;5086392;28;20025;-80
2022/04/25 09:36:16;;;;;;;7.15;2.80;;;18.80;60.80;;;;;;5088065;28;20016;-79
2022/04/25 09:38:43;;;;;;;5.25;2.97;;;19.00;60.80;;;;;;5090577;28;20028;-79
2022/04/25 09:41:14;;;;;;;7.63;2.97;;;19.70;57.50;;;;;;5082317;28;20103;-79
2022/04/25 09:43:41;;;;;;;12.02;2.92;;;20.60;56.80;;;;;;5089970;28;20024;-82
2022/04/25 09:46:07;;;;;;;20.70;3.38;;;20.20;54.10;;;;;;5132194;22;20468;-80
2022/04/25 09:48:35;;;;;;;6.07;2.63;;;20.10;54.50;;;;;;5106702;28;20020;-79
2022/04/25 09:51:02;;;;;;;6.22;2.25;;;20.70;50.00;;;;;;5105781;28;20020;-80
2022/04/25 09:53:46;;;;;;;6.10;2.30;;;20.50;51.00;;;;;;5109039;28;20495;-79
2022/04/25 09:56:18;;;;;;;5.28;2.35;;;20.30;53.70;;;;;;5106736;28;20023;-77
2022/04/25 09:58:56;;;;;;;4.65;3.08;;;20.10;48.10;;;;;;5100007;28;20537;-73
2022/04/25 10:01:22;;;;;;;5.18;2.42;;;20.20;51.20;;;;;;5096634;28;20020;-73
2022/04/25 10:03:48;;;;;;;6.53;2.53;;;20.00;51.20;;;;;;5103550;28;20657;-74
2022/04/25 10:06:14;;;;;;;8.57;2.20;;;20.20;50.70;;;;;;5103901;28;20032;-83
2022/04/25 10:08:41;;;;;;;6.93;2.60;;;21.40;48.00;;;;;;5103587;28;20024;-73
2022/04/25 10:11:07;;;;;;;3.95;2.40;;;21.80;49.90;;;;;;5101379;28;20065;-74
2022/04/25 10:13:34;;;;;;;6.55;2.22;;;22.00;48.00;;;;;;5098993;28;20065;-75
2022/04/25 10:16:01;;;;;;;4.35;2.25;;;23.40;43.80;;;;;;5099781;28;20024;-73
2022/04/25 10:18:31;;;;;;;8.18;2.35;;;24.70;40.00;;;;;;5104563;28;20035;-75
2022/04/25 10:20:58;;;;;;;6.78;2.50;;;24.90;38.10;;;;;;5096564;28;20026;-74
2022/04/25 10:23:25;;;;;;;6.72;2.05;;;25.50;39.90;;;;;;5103149;28;20022;-74
2022/04/25 10:25:54;;;;;;;6.75;2.50;;;26.40;35.30;;;;;;5101465;28;20020;-74
2022/04/25 10:28:27;;;;;;;5.38;2.58;;;26.50;36.70;;;;;;5097188;28;20031;-73
2022/04/25 10:30:59;;;;;;;4.13;2.35;;;25.90;35.90;;;;;;5102239;28;20024;-74
2022/04/25 10:33:25;;;;;;;7.95;2.40;;;25.60;36.70;;;;;;5100991;28;20140;-74
2022/04/25 10:35:52;;;;;;;5.57;2.20;;;26.30;35.80;;;;;;5101638;28;20147;-74
2022/04/25 10:44:17;;;;;;;6.03;2.35;;;26.70;33.90;;;;;;5101321;28;20068;-73
2022/04/25 10:47:07;;;;;;;4.18;2.35;;;25.70;33.70;;;;;;5114246;22;20512;-84
2022/04/25 10:49:46;;;;;;;8.15;2.30;;;23.80;38.60;;;;;;5095529;28;20028;-82
2022/04/25 10:52:33;;;;;;;7.40;2.58;;;22.60;40.40;;;;;;5097299;28;20016;-84
2022/04/25 10:55:12;;;;;;;3.08;2.40;;;22.60;43.10;;;;;;5095115;28;20019;-79
2022/04/25 10:58:04;;;;;;;9.48;2.80;;;23.60;43.30;;;;;;5090238;28;20035;-77
2022/04/25 11:03:12;;;;;;;4.65;2.30;;;23.00;41.80;;;;;;5096350;28;20392;-78
2022/04/25 11:05:39;;;;;;;5.45;2.63;;;24.30;42.50;;;;;;5093082;28;20020;-77
2022/04/25 11:08:23;;;;;;;4.57;2.38;;;25.90;37.80;;;;;;5098299;28;20047;-77
2022/04/25 11:10:57;;;;;;;3.65;2.05;;;27.10;38.50;;;;;;5101089;28;20027;-77
2022/04/25 11:13:30;;;;;;;3.90;2.03;;;26.70;34.60;;;;;;5093361;28;20021;-77
2022/04/25 11:16:16;;;;;;;5.65;2.70;;;26.70;35.70;;;;;;5100249;28;20024;-77
2022/04/25 11:18:42;;;;;;;4.13;2.40;;;27.00;33.50;;;;;;5092430;28;20032;-77
2022/04/25 11:21:08;;;;;;;4.40;2.13;;;27.40;34.00;;;;;;5092406;28;20012;-77
2022/04/25 11:23:47;;;;;;;3.80;2.10;;;28.30;32.00;;;;;;5093481;28;20070;-78
2022/04/25 11:26:22;;;;;;;5.78;1.92;;;28.00;35.40;;;;;;5096077;28;20017;-78
2022/04/25 11:28:58;;;;;;;7.20;2.60;;;29.00;30.60;;;;;;5101107;28;20085;-77
2022/04/25 11:31:25;;;;;;;3.45;2.28;;;28.90;30.30;;;;;;5091780;28;20023;-78
2022/04/25 11:33:54;;;;;;;6.43;2.15;;;29.10;32.30;;;;;;5091799;28;20077;-77
2022/04/25 11:36:21;;;;;;;5.40;2.50;;;30.10;31.30;;;;;;5096956;28;20024;-78
2022/04/25 11:41:35;;;;;;;6.00;2.67;;;26.40;31.30;;;;;;5091790;28;20061;-78
2022/04/25 11:44:01;;;;;;;5.10;2.45;;;25.90;33.60;;;;;;5097600;28;20043;-77
2022/04/25 11:46:28;;;;;;;5.80;2.28;;;26.40;30.70;;;;;;5111847;22;20048;-74
2022/04/25 11:48:55;;;;;;;5.25;2.45;;;28.20;33.00;;;;;;5086454;28;20488;-74
2022/04/25 11:51:29;;;;;;;3.80;2.10;;;29.70;31.60;;;;;;5093210;28;20035;-73
2022/04/25 11:54:04;;;;;;;3.90;1.80;;;28.80;28.60;;;;;;5087561;28;20012;-76
2022/04/25 11:56:32;;;;;;;4.82;1.80;;;27.70;29.50;;;;;;5072098;28;20017;-74
2022/04/25 11:58:58;;;;;;;3.95;1.90;;;28.00;28.60;;;;;;5068222;28;20068;-74
2022/04/25 12:01:39;;;;;;;4.55;2.15;;;27.50;29.50;;;;;;5063553;28;20016;-74
2022/04/25 12:04:24;;;;;;;4.18;2.20;;;28.60;29.90;;;;;;5059059;28;20060;-74
2022/04/25 12:06:53;;;;;;;5.60;2.38;;;27.40;29.80;;;;;;5065680;28;20554;-74
2022/04/25 12:17:42;;;;;;;3.85;2.35;;;21.50;39.50;;;;;;5072901;28;20185;-74
2022/04/25 12:20:10;;;;;;;3.95;2.75;;;22.70;38.90;;;;;;5067488;28;20013;-74
2022/04/25 12:22:38;;;;;;;7.30;3.28;;;21.90;38.30;;;;;;5060444;28;20036;-75
2022/04/25 12:25:17;;;;;;;5.05;2.83;;;20.80;41.10;;;;;;5072186;28;20566;-74
2022/04/25 12:28:07;;;;;;;7.68;2.60;;;19.80;43.20;;;;;;5061133;28;20084;-74
2022/04/25 12:30:56;;;;;;;5.03;3.00;;;18.70;44.50;;;;;;5066442;28;20092;-74
2022/04/25 12:33:39;;;;;;;5.20;2.70;;;17.40;47.60;;;;;;5065148;28;20123;-74
2022/04/25 12:36:17;;;;;;;7.15;2.47;;;17.50;53.30;;;;;;5071592;28;20104;-74
2022/04/25 12:38:51;;;;;;;7.35;3.00;;;18.00;53.60;;;;;;5072281;28;20111;-75
2022/04/25 12:41:27;;;;;;;7.78;3.20;;;18.40;54.30;;;;;;5065757;28;20013;-74
2022/04/25 12:43:55;;;;;;;10.05;3.33;;;18.20;50.80;;;;;;5068325;28;20021;-78
2022/04/25 12:46:41;;;;;;;8.73;3.08;;;18.20;52.00;;;;;;5123614;22;20040;-78
2022/04/25 12:49:14;;;;;;;12.23;2.97;;;18.10;51.80;;;;;;5113201;28;20115;-79
2022/04/25 12:51:50;;;;;;;8.38;3.15;;;18.20;52.60;;;;;;5112791;28;20381;-78
2022/04/25 12:54:20;;;;;;;4.22;2.60;;;17.80;50.70;;;;;;5112779;28;20020;-78
2022/04/25 12:56:46;;;;;;;6.68;2.90;;;17.80;51.30;;;;;;5100571;28;20091;-78
2022/04/25 12:59:12;;;;;;;4.88;2.90;;;17.70;51.10;;;;;;5100605;28;20081;-78
2022/04/25 13:01:38;;;;;;;4.72;2.90;;;17.10;53.50;;;;;;5096796;28;20017;-79
2022/04/25 13:04:14;;;;;;;4.88;2.95;;;17.40;53.70;;;;;;5099879;28;20024;-79
2022/04/25 13:06:42;;;;;;;7.93;2.92;;;17.40;52.60;;;;;;5104025;28;20051;-78
2022/04/25 13:09:08;;;;;;;5.32;3.05;;;16.90;55.80;;;;;;5103013;28;20023;-78
2022/04/25 13:11:34;;;;;;;5.60;3.15;;;17.00;56.50;;;;;;5100536;28;20016;-81
2022/04/25 13:14:01;;;;;;;5.70;2.75;;;16.90;55.30;;;;;;5099669;28;20434;-78
2022/04/25 13:16:27;;;;;;;8.88;3.60;;;16.50;60.40;;;;;;5106198;28;20020;-81
2022/04/25 13:18:53;;;;;;;6.03;3.10;;;16.00;60.50;;;;;;5099343;28;20059;-76
2022/04/25 13:21:19;;;;;;;6.72;3.10;;;15.70;63.40;;;;;;5099967;28;20043;-76
2022/04/25 13:23:47;;;;;;;3.40;3.10;;;15.70;63.00;;;;;;5101587;28;20027;-76
2022/04/25 13:26:14;;;;;;;7.60;2.65;;;16.00;62.60;;;;;;5100288;28;20023;-76
2022/04/25 13:28:40;;;;;;;4.47;2.97;;;15.90;61.20;;;;;;5095641;28;20417;-76
2022/04/25 13:31:06;;;;;;;5.95;2.60;;;16.00;59.70;;;;;;5095871;28;20068;-76
2022/04/25 13:33:32;;;;;;;2.95;2.40;;;16.20;63.20;;;;;;5097010;28;20020;-76
2022/04/25 13:35:58;;;;;;;4.70;2.70;;;16.50;62.40;;;;;;5094431;28;20023;-76
2022/04/25 13:38:26;;;;;;;5.60;2.90;;;16.50;63.30;;;;;;5096310;28;20190;-82
2022/04/25 13:40:51;;;;;;;6.55;2.60;;;16.50;62.40;;;;;;5100132;28;20087;-77